Time;durP1;ratioP1;P1;durP2;ratioP2;P2;SDS_P1;SDS_P2;PMS_P1;PMS_P2;Temp;Humidity;BMP_temperature;BMP_pressure;BME280_temperature;BME280_humidity;BME280_pressure;Samples;Min_cycle;Max_cycle;Signal;HPM_P1;HPM_P2
2023/06/17 00:00:08;;;;;;;5.57;4.68;;;;;;;;;;5094339;28;20340;-28
2023/06/17 00:02:35;;;;;;;5.35;4.85;;;;;;;;;;5094863;28;20024;-28
2023/06/17 00:05:02;;;;;;;4.50;4.20;;;;;;;;;;5094698;28;20348;-27
2023/06/17 00:07:28;;;;;;;8.68;5.65;;;;;;;;;;5094808;28;20047;-30
2023/06/17 00:09:54;;;;;;;7.40;4.85;;;;;;;;;;5095102;28;20028;-28
2023/06/17 00:12:21;;;;;;;5.25;4.75;;;;;;;;;;5094750;28;20385;-28
2023/06/17 00:14:48;;;;;;;4.70;4.22;;;;;;;;;;5095009;28;20396;-28
2023/06/17 00:17:14;;;;;;;4.43;4.10;;;;;;;;;;5076921;28;20028;-28
2023/06/17 00:19:40;;;;;;;4.65;4.25;;;;;;;;;;5094722;28;20096;-30
2023/06/17 00:22:08;;;;;;;5.95;4.55;;;;;;;;;;5094607;28;20371;-29
2023/06/17 00:24:35;;;;;;;5.45;4.63;;;;;;;;;;5094847;28;20027;-31
2023/06/17 00:27:01;;;;;;;4.97;4.68;;;;;;;;;;5094906;28;20069;-29
2023/06/17 00:29:27;;;;;;;6.13;4.88;;;;;;;;;;5094639;28;20028;-30
2023/06/17 00:31:53;;;;;;;5.32;4.82;;;;;;;;;;5094525;28;20024;-31
2023/06/17 00:34:19;;;;;;;6.93;5.03;;;;;;;;;;5094866;28;20081;-31
2023/06/17 00:36:45;;;;;;;8.25;4.82;;;;;;;;;;5094793;28;20028;-29
2023/06/17 00:39:13;;;;;;;4.95;4.30;;;;;;;;;;5094784;28;20026;-29
2023/06/17 00:41:39;;;;;;;5.15;4.63;;;;;;;;;;5094465;28;20038;-28
2023/06/17 00:44:05;;;;;;;6.90;5.00;;;;;;;;;;5094311;28;20377;-31
2023/06/17 00:46:36;;;;;;;6.57;4.75;;;;;;;;;;5094474;28;20023;-28
2023/06/17 00:49:03;;;;;;;9.23;4.57;;;;;;;;;;5095051;28;20416;-30
2023/06/17 00:51:31;;;;;;;5.93;5.43;;;;;;;;;;5094406;28;20048;-30
2023/06/17 00:53:58;;;;;;;4.90;4.50;;;;;;;;;;5094335;28;20070;-29
2023/06/17 00:56:25;;;;;;;6.22;5.00;;;;;;;;;;5094400;28;20024;-28
2023/06/17 00:58:51;;;;;;;6.38;4.05;;;;;;;;;;5094319;28;20028;-27
2023/06/17 01:01:18;;;;;;;6.07;5.43;;;;;;;;;;5094597;28;20031;-27
2023/06/17 01:03:45;;;;;;;4.20;3.90;;;;;;;;;;5094098;28;20054;-27
2023/06/17 01:06:17;;;;;;;5.05;4.50;;;;;;;;;;5094624;28;20376;-30
2023/06/17 01:08:51;;;;;;;4.55;4.25;;;;;;;;;;5094258;28;20496;-29
2023/06/17 01:11:20;;;;;;;5.68;5.10;;;;;;;;;;5097625;28;20332;-32
2023/06/17 01:13:48;;;;;;;5.07;4.68;;;;;;;;;;5097946;28;20028;-27
2023/06/17 01:16:15;;;;;;;5.90;4.30;;;;;;;;;;5098237;28;20409;-31
2023/06/17 01:18:41;;;;;;;4.88;4.43;;;;;;;;;;5097908;28;20043;-31
2023/06/17 01:21:08;;;;;;;5.18;4.22;;;;;;;;;;5080038;28;20028;-31
2023/06/17 01:23:35;;;;;;;4.63;4.28;;;;;;;;;;5097689;28;20020;-30
2023/06/17 01:26:01;;;;;;;4.95;4.55;;;;;;;;;;5097789;28;20016;-27
2023/06/17 01:28:29;;;;;;;7.57;4.32;;;;;;;;;;5097980;28;20051;-29
2023/06/17 01:30:56;;;;;;;4.32;4.03;;;;;;;;;;5097895;28;20036;-29
2023/06/17 01:33:23;;;;;;;4.60;4.30;;;;;;;;;;5097534;28;20107;-29
2023/06/17 01:35:52;;;;;;;4.97;4.47;;;;;;;;;;5098130;28;20159;-30
2023/06/17 01:38:30;;;;;;;4.88;4.00;;;;;;;;;;5097815;28;20412;-27
2023/06/17 01:41:02;;;;;;;4.90;4.38;;;;;;;;;;5097483;28;20028;-29
2023/06/17 01:43:28;;;;;;;4.10;3.80;;;;;;;;;;5097359;28;20048;-27
2023/06/17 01:45:55;;;;;;;6.03;4.57;;;;;;;;;;5097935;28;20024;-29
2023/06/17 01:48:22;;;;;;;6.50;4.28;;;;;;;;;;5097328;28;20462;-29
2023/06/17 01:50:48;;;;;;;3.90;3.65;;;;;;;;;;5097294;28;20113;-29
2023/06/17 01:53:14;;;;;;;4.47;4.10;;;;;;;;;;5097121;28;20031;-27
2023/06/17 01:55:40;;;;;;;4.30;4.07;;;;;;;;;;5097203;28;20039;-28
2023/06/17 01:58:06;;;;;;;4.35;4.05;;;;;;;;;;5097142;28;20012;-31
2023/06/17 02:00:33;;;;;;;4.35;4.05;;;;;;;;;;5097860;28;20028;-28
2023/06/17 02:02:59;;;;;;;4.00;3.70;;;;;;;;;;5079011;28;20024;-29
2023/06/17 02:05:25;;;;;;;4.97;3.83;;;;;;;;;;5079041;28;20051;-31
2023/06/17 02:07:53;;;;;;;4.28;3.97;;;;;;;;;;5097160;28;20067;-30
2023/06/17 02:10:19;;;;;;;5.45;4.15;;;;;;;;;;5097128;28;20443;-31
2023/06/17 02:12:45;;;;;;;4.50;4.20;;;;;;;;;;5097033;28;20332;-30
2023/06/17 02:15:11;;;;;;;4.47;4.05;;;;;;;;;;5097127;28;20103;-30
2023/06/17 02:17:38;;;;;;;5.18;4.78;;;;;;;;;;5096838;28;20024;-30
2023/06/17 02:20:06;;;;;;;10.13;6.05;;;;;;;;;;5096645;28;20024;-30
2023/06/17 02:22:32;;;;;;;4.45;4.05;;;;;;;;;;5095933;28;20043;-29
2023/06/17 02:24:59;;;;;;;4.28;3.92;;;;;;;;;;5096599;28;20134;-29
2023/06/17 02:27:25;;;;;;;8.18;3.75;;;;;;;;;;5096515;28;20027;-30
2023/06/17 02:29:51;;;;;;;4.05;3.83;;;;;;;;;;5096763;28;20016;-29
2023/06/17 02:32:17;;;;;;;4.28;3.90;;;;;;;;;;5097306;28;20429;-28
2023/06/17 02:34:48;;;;;;;4.35;3.95;;;;;;;;;;5096652;28;20095;-32
2023/06/17 02:37:14;;;;;;;4.32;3.92;;;;;;;;;;5096683;28;20328;-28
2023/06/17 02:39:41;;;;;;;4.95;4.55;;;;;;;;;;5096595;28;20036;-30
2023/06/17 02:42:08;;;;;;;4.28;3.97;;;;;;;;;;5096224;28;20042;-31
2023/06/17 02:44:35;;;;;;;5.03;4.38;;;;;;;;;;5096461;28;20020;-31
2023/06/17 02:47:02;;;;;;;3.75;3.53;;;;;;;;;;5096229;28;20020;-34
2023/06/17 02:49:28;;;;;;;4.00;3.70;;;;;;;;;;5096099;28;20021;-30
2023/06/17 02:51:54;;;;;;;5.82;5.30;;;;;;;;;;5096300;28;20328;-31
2023/06/17 02:54:20;;;;;;;3.88;3.53;;;;;;;;;;5096038;28;20469;-31
2023/06/17 02:56:47;;;;;;;4.43;4.03;;;;;;;;;;5096005;28;20030;-31
2023/06/17 02:59:15;;;;;;;4.72;3.85;;;;;;;;;;5096271;28;20459;-27
2023/06/17 03:01:41;;;;;;;4.00;3.70;;;;;;;;;;5095913;28;20071;-32
2023/06/17 03:04:09;;;;;;;4.00;3.70;;;;;;;;;;5095530;28;20127;-30
2023/06/17 03:06:35;;;;;;;4.13;3.83;;;;;;;;;;5095800;28;20027;-31
2023/06/17 03:09:03;;;;;;;4.47;4.07;;;;;;;;;;5096331;28;20363;-30
2023/06/17 03:11:29;;;;;;;4.07;3.78;;;;;;;;;;5095695;28;20031;-33
2023/06/17 03:13:56;;;;;;;4.40;4.00;;;;;;;;;;5095880;28;20040;-30
2023/06/17 03:16:24;;;;;;;3.75;3.45;;;;;;;;;;5095614;28;20016;-30
2023/06/17 03:18:50;;;;;;;3.55;3.20;;;;;;;;;;5095867;28;20016;-29
2023/06/17 03:21:16;;;;;;;4.25;3.95;;;;;;;;;;5095593;28;20028;-31
2023/06/17 03:23:43;;;;;;;5.28;3.60;;;;;;;;;;5095389;28;20115;-30
2023/06/17 03:26:09;;;;;;;4.13;3.78;;;;;;;;;;5095474;28;20016;-30
2023/06/17 03:28:36;;;;;;;4.30;3.90;;;;;;;;;;5095678;28;20516;-33
2023/06/17 03:31:02;;;;;;;4.03;3.72;;;;;;;;;;5095632;28;20032;-30
2023/06/17 03:33:29;;;;;;;4.30;3.90;;;;;;;;;;5094661;28;20351;-31
2023/06/17 03:35:57;;;;;;;5.43;3.83;;;;;;;;;;5095331;28;20395;-30
2023/06/17 03:38:23;;;;;;;4.65;4.30;;;;;;;;;;5095512;28;20052;-31
2023/06/17 03:40:49;;;;;;;3.67;3.38;;;;;;;;;;5077376;28;20024;-32
2023/06/17 03:43:15;;;;;;;4.13;3.83;;;;;;;;;;5095003;28;20027;-29
2023/06/17 03:45:42;;;;;;;4.50;3.72;;;;;;;;;;5095438;28;20051;-28
2023/06/17 03:48:08;;;;;;;3.47;3.17;;;;;;;;;;5095088;28;20019;-28
2023/06/17 03:50:35;;;;;;;3.70;3.40;;;;;;;;;;5095097;28;20020;-26
2023/06/17 03:53:01;;;;;;;3.60;3.40;;;;;;;;;;5094983;28;20043;-26
2023/06/17 03:55:27;;;;;;;3.80;3.50;;;;;;;;;;5095277;28;20448;-26
2023/06/17 03:57:53;;;;;;;4.30;3.90;;;;;;;;;;5077179;28;20097;-27
2023/06/17 04:00:19;;;;;;;3.80;3.50;;;;;;;;;;5094946;28;20099;-28
2023/06/17 04:02:47;;;;;;;3.90;3.60;;;;;;;;;;5094863;28;20205;-31
2023/06/17 04:05:13;;;;;;;4.50;4.03;;;;;;;;;;5094597;28;20070;-28
2023/06/17 04:07:40;;;;;;;3.72;3.50;;;;;;;;;;5095189;28;20024;-31
2023/06/17 04:10:08;;;;;;;4.05;3.67;;;;;;;;;;5094813;28;20056;-33
2023/06/17 04:12:37;;;;;;;4.00;3.63;;;;;;;;;;5095244;28;20013;-28
2023/06/17 04:15:03;;;;;;;3.90;3.55;;;;;;;;;;5095280;28;20339;-28
2023/06/17 04:17:30;;;;;;;4.40;3.30;;;;;;;;;;5094750;28;20024;-34
2023/06/17 04:19:58;;;;;;;3.92;3.63;;;;;;;;;;5094680;28;20024;-29
2023/06/17 04:22:24;;;;;;;3.42;3.17;;;;;;;;;;5094640;28;20497;-32
2023/06/17 04:24:55;;;;;;;3.50;2.90;;;;;;;;;;5094594;28;20145;-31
2023/06/17 04:27:21;;;;;;;3.92;3.55;;;;;;;;;;5094662;28;20095;-29
2023/06/17 04:29:48;;;;;;;4.07;3.78;;;;;;;;;;5094558;28;20039;-28
2023/06/17 04:32:15;;;;;;;4.45;3.08;;;;;;;;;;5094544;28;20039;-26
2023/06/17 04:34:47;;;;;;;3.88;3.50;;;;;;;;;;5094526;28;20463;-33
2023/06/17 04:37:14;;;;;;;3.97;3.42;;;;;;;;;;5094866;28;20112;-31
2023/06/17 04:39:41;;;;;;;3.95;3.38;;;;;;;;;;5094799;28;20024;-29
2023/06/17 04:42:08;;;;;;;3.55;3.35;;;;;;;;;;5094684;28;20451;-29
2023/06/17 04:44:34;;;;;;;2.90;2.72;;;;;;;;;;5095096;28;20056;-31
2023/06/17 04:47:00;;;;;;;3.65;3.35;;;;;;;;;;5098823;28;20426;-29
2023/06/17 04:49:27;;;;;;;4.28;3.15;;;;;;;;;;5098787;28;20099;-30
2023/06/17 04:51:53;;;;;;;3.90;3.58;;;;;;;;;;5098664;28;20025;-26
2023/06/17 04:54:19;;;;;;;4.20;3.80;;;;;;;;;;5098680;28;20020;-27
2023/06/17 04:56:45;;;;;;;3.17;2.88;;;;;;;;;;5098620;28;20028;-30
2023/06/17 04:59:12;;;;;;;4.75;3.58;;;;;;;;;;5098620;28;20024;-29
2023/06/17 05:01:38;;;;;;;3.72;3.42;;;;;;;;;;5098303;28;20520;-29
2023/06/17 05:04:05;;;;;;;3.40;3.10;;;;;;;;;;5098101;28;20399;-30
2023/06/17 05:06:31;;;;;;;3.47;3.28;;;;;;;;;;5098176;28;20020;-30
2023/06/17 05:08:57;;;;;;;3.30;3.10;;;;;;;;;;5098031;28;20107;-32
2023/06/17 05:11:24;;;;;;;3.63;3.42;;;;;;;;;;5098073;28;20021;-30
2023/06/17 05:13:50;;;;;;;3.15;2.95;;;;;;;;;;5097883;28;20106;-30
2023/06/17 05:16:16;;;;;;;3.28;3.03;;;;;;;;;;5097931;28;20024;-29
2023/06/17 05:18:42;;;;;;;3.42;3.17;;;;;;;;;;5098185;28;20457;-31
2023/06/17 05:21:09;;;;;;;3.70;3.40;;;;;;;;;;5098146;28;20028;-27
2023/06/17 05:23:35;;;;;;;3.47;3.28;;;;;;;;;;5097690;28;20056;-27
2023/06/17 05:26:01;;;;;;;4.13;3.83;;;;;;;;;;5097701;28;20461;-27
2023/06/17 05:28:27;;;;;;;4.38;3.95;;;;;;;;;;5097747;28;20409;-31
2023/06/17 05:30:53;;;;;;;3.40;3.20;;;;;;;;;;5097729;28;20032;-32
2023/06/17 05:33:19;;;;;;;2.85;2.65;;;;;;;;;;5097829;28;20371;-29
2023/06/17 05:35:46;;;;;;;3.78;3.50;;;;;;;;;;5097836;28;20328;-28
2023/06/17 05:38:12;;;;;;;3.60;3.33;;;;;;;;;;5097577;28;20020;-29
2023/06/17 05:40:38;;;;;;;3.15;2.95;;;;;;;;;;5098056;28;20355;-28
2023/06/17 05:43:04;;;;;;;3.35;2.85;;;;;;;;;;5097435;28;20074;-30
2023/06/17 05:45:30;;;;;;;3.20;3.00;;;;;;;;;;5097430;28;20024;-27
2023/06/17 05:47:56;;;;;;;3.65;3.40;;;;;;;;;;5097313;28;20435;-33
2023/06/17 05:50:22;;;;;;;3.30;3.00;;;;;;;;;;5097872;28;20036;-29
2023/06/17 05:52:49;;;;;;;4.13;3.75;;;;;;;;;;5097403;28;20051;-29
2023/06/17 05:55:15;;;;;;;6.95;3.25;;;;;;;;;;5097203;28;20028;-32
2023/06/17 05:57:41;;;;;;;4.13;3.22;;;;;;;;;;5096193;28;20077;-32
2023/06/17 06:00:08;;;;;;;3.65;3.35;;;;;;;;;;5097111;28;20493;-28
2023/06/17 06:02:34;;;;;;;3.78;3.47;;;;;;;;;;5097005;28;20043;-32
2023/06/17 06:05:00;;;;;;;3.78;3.47;;;;;;;;;;5096823;28;20048;-27
2023/06/17 06:07:26;;;;;;;3.08;2.78;;;;;;;;;;5096967;28;20058;-31
2023/06/17 06:09:53;;;;;;;3.42;3.13;;;;;;;;;;5097234;28;20044;-29
2023/06/17 06:12:19;;;;;;;3.70;3.40;;;;;;;;;;5096782;28;20028;-29
2023/06/17 06:14:45;;;;;;;4.95;3.22;;;;;;;;;;5097049;28;20111;-30
2023/06/17 06:17:11;;;;;;;3.75;3.20;;;;;;;;;;5096808;28;20036;-29
2023/06/17 06:19:37;;;;;;;3.53;3.30;;;;;;;;;;5097534;28;20336;-31
2023/06/17 06:22:03;;;;;;;3.05;2.85;;;;;;;;;;5078765;28;20020;-27
2023/06/17 06:24:29;;;;;;;3.20;3.00;;;;;;;;;;5096569;28;20093;-28
2023/06/17 06:26:56;;;;;;;3.08;2.88;;;;;;;;;;5096856;28;20103;-25
2023/06/17 06:29:22;;;;;;;3.13;2.83;;;;;;;;;;5096641;28;20019;-27
2023/06/17 06:31:48;;;;;;;3.95;3.65;;;;;;;;;;5096767;28;20020;-28
2023/06/17 06:34:14;;;;;;;3.35;3.10;;;;;;;;;;5096486;28;20020;-29
2023/06/17 06:36:40;;;;;;;3.25;2.95;;;;;;;;;;5096718;28;20028;-31
2023/06/17 06:39:06;;;;;;;3.45;3.15;;;;;;;;;;5096377;28;20102;-33
2023/06/17 06:41:32;;;;;;;3.25;3.05;;;;;;;;;;5096924;28;20085;-30
2023/06/17 06:43:58;;;;;;;4.18;3.08;;;;;;;;;;5096402;28;20043;-32
2023/06/17 06:46:25;;;;;;;3.92;3.63;;;;;;;;;;5096498;28;20451;-32
2023/06/17 06:48:52;;;;;;;3.33;3.05;;;;;;;;;;5096658;28;20024;-28
2023/06/17 06:51:18;;;;;;;3.03;2.75;;;;;;;;;;5096303;28;20056;-32
2023/06/17 06:53:44;;;;;;;3.63;3.10;;;;;;;;;;5096331;28;20024;-29
2023/06/17 06:56:10;;;;;;;2.92;2.70;;;;;;;;;;5096177;28;20560;-31
2023/06/17 06:58:36;;;;;;;3.83;3.42;;;;;;;;;;5096873;28;20032;-30
2023/06/17 07:01:03;;;;;;;3.03;2.83;;;;;;;;;;5096340;28;20336;-29
2023/06/17 07:03:29;;;;;;;3.53;3.13;;;;;;;;;;5095632;28;20020;-30
2023/06/17 07:05:55;;;;;;;2.60;2.47;;;;;;;;;;5095861;28;20036;-28
2023/06/17 07:08:21;;;;;;;3.22;2.72;;;;;;;;;;5095659;28;20158;-30
2023/06/17 07:10:48;;;;;;;3.60;3.40;;;;;;;;;;5095793;28;20031;-27
2023/06/17 07:13:14;;;;;;;3.15;2.95;;;;;;;;;;5095914;28;20042;-29
2023/06/17 07:15:41;;;;;;;3.20;2.88;;;;;;;;;;5095627;28;20447;-29
2023/06/17 07:18:07;;;;;;;3.85;2.95;;;;;;;;;;5095893;28;20048;-28
2023/06/17 07:20:33;;;;;;;3.17;2.97;;;;;;;;;;5096003;28;20048;-29
2023/06/17 07:22:59;;;;;;;3.25;2.97;;;;;;;;;;5095501;28;20038;-31
2023/06/17 07:25:26;;;;;;;3.30;2.85;;;;;;;;;;5095396;28;20127;-32
2023/06/17 07:27:52;;;;;;;4.43;3.45;;;;;;;;;;5095448;28;20115;-31
2023/06/17 07:30:18;;;;;;;3.60;3.40;;;;;;;;;;5095441;28;20447;-29
2023/06/17 07:32:44;;;;;;;2.50;2.33;;;;;;;;;;5095312;28;20032;-32
2023/06/17 07:35:10;;;;;;;3.30;3.10;;;;;;;;;;5095601;28;20024;-31
2023/06/17 07:37:37;;;;;;;3.85;3.50;;;;;;;;;;5095620;28;20028;-30
2023/06/17 07:40:05;;;;;;;3.55;3.25;;;;;;;;;;5095262;28;20055;-26
2023/06/17 07:42:31;;;;;;;3.67;3.38;;;;;;;;;;5095072;28;20403;-31
2023/06/17 07:44:57;;;;;;;4.30;3.40;;;;;;;;;;5095354;28;20378;-29
2023/06/17 07:47:23;;;;;;;3.20;2.65;;;;;;;;;;5095148;28;20032;-32
2023/06/17 07:49:50;;;;;;;3.15;2.95;;;;;;;;;;5095139;28;20024;-28
2023/06/17 07:52:16;;;;;;;3.90;3.60;;;;;;;;;;5095440;28;20438;-26
2023/06/17 07:54:42;;;;;;;2.75;2.55;;;;;;;;;;5095266;28;20028;-30
2023/06/17 07:57:08;;;;;;;5.22;3.60;;;;;;;;;;5095032;28;20027;-31
2023/06/17 07:59:34;;;;;;;3.42;3.22;;;;;;;;;;5095252;28;20106;-29
2023/06/17 08:02:00;;;;;;;3.20;3.00;;;;;;;;;;5095119;28;20028;-30
2023/06/17 08:04:26;;;;;;;3.13;2.90;;;;;;;;;;5076840;28;20535;-30
2023/06/17 08:06:53;;;;;;;2.60;2.40;;;;;;;;;;5094862;28;20103;-26
2023/06/17 08:09:19;;;;;;;3.35;3.15;;;;;;;;;;5095406;28;20029;-30
2023/06/17 08:11:47;;;;;;;3.15;2.95;;;;;;;;;;5094793;28;20030;-27
2023/06/17 08:14:14;;;;;;;3.25;2.97;;;;;;;;;;5095011;28;20058;-30
2023/06/17 08:16:40;;;;;;;3.00;2.80;;;;;;;;;;5095022;28;20043;-28
2023/06/17 08:19:06;;;;;;;3.65;3.35;;;;;;;;;;5094692;28;20024;-29
2023/06/17 08:21:34;;;;;;;3.60;3.28;;;;;;;;;;5094772;28;20355;-28
2023/06/17 08:24:15;;;;;;;3.60;3.35;;;;;;;;;;5094548;28;20028;-28
2023/06/17 08:26:43;;;;;;;3.30;3.10;;;;;;;;;;5094998;28;20024;-26
2023/06/17 08:29:10;;;;;;;2.53;2.40;;;;;;;;;;5094554;28;20024;-27
2023/06/17 08:31:37;;;;;;;2.90;2.70;;;;;;;;;;5094655;28;20105;-31
2023/06/17 08:34:03;;;;;;;3.10;2.90;;;;;;;;;;5076712;28;20085;-31
2023/06/17 08:36:29;;;;;;;3.40;3.20;;;;;;;;;;5094865;28;20496;-27
2023/06/17 08:38:55;;;;;;;3.00;2.80;;;;;;;;;;5094836;28;20066;-27
2023/06/17 08:41:21;;;;;;;3.03;2.83;;;;;;;;;;5094588;28;20125;-28
2023/06/17 08:43:51;;;;;;;2.80;2.60;;;;;;;;;;5094370;28;20021;-30
2023/06/17 08:46:19;;;;;;;3.38;3.17;;;;;;;;;;5095347;28;20012;-29
2023/06/17 08:48:46;;;;;;;4.43;3.58;;;;;;;;;;5094710;28;20035;-29
2023/06/17 08:51:12;;;;;;;3.33;3.13;;;;;;;;;;5094453;28;20443;-31
2023/06/17 08:53:39;;;;;;;3.70;3.50;;;;;;;;;;5094481;28;20032;-30
2023/06/17 08:56:05;;;;;;;3.53;3.25;;;;;;;;;;5094415;28;20019;-31
2023/06/17 08:58:31;;;;;;;3.45;3.25;;;;;;;;;;5094633;28;20028;-27
2023/06/17 09:00:58;;;;;;;3.25;3.05;;;;;;;;;;5094341;28;20043;-26
2023/06/17 09:03:25;;;;;;;4.75;4.35;;;;;;;;;;5094279;28;20038;-28
2023/06/17 09:05:54;;;;;;;3.15;2.95;;;;;;;;;;5094304;28;20028;-29
2023/06/17 09:08:20;;;;;;;3.92;3.67;;;;;;;;;;5094305;28;20114;-30
2023/06/17 09:10:47;;;;;;;4.40;4.10;;;;;;;;;;5094292;28;20328;-31
2023/06/17 09:13:13;;;;;;;3.65;3.45;;;;;;;;;;5094199;28;20024;-30
2023/06/17 09:15:40;;;;;;;3.50;3.20;;;;;;;;;;5094258;28;20024;-31
2023/06/17 09:18:07;;;;;;;3.50;3.13;;;;;;;;;;5094224;28;20102;-28
2023/06/17 09:20:34;;;;;;;3.17;2.97;;;;;;;;;;5094450;28;20068;-28
2023/06/17 09:23:00;;;;;;;4.15;3.75;;;;;;;;;;5094613;28;20058;-30
2023/06/17 09:25:26;;;;;;;4.30;4.00;;;;;;;;;;5094068;28;20031;-26
2023/06/17 09:27:54;;;;;;;3.63;3.42;;;;;;;;;;5094059;28;20027;-28
2023/06/17 09:30:23;;;;;;;4.32;4.05;;;;;;;;;;5094366;28;20029;-27
2023/06/17 09:32:51;;;;;;;2.80;2.70;;;;;;;;;;5096552;28;20028;-30
2023/06/17 09:35:18;;;;;;;4.00;3.70;;;;;;;;;;5097564;28;20051;-29
2023/06/17 09:37:48;;;;;;;3.60;3.40;;;;;;;;;;5097854;28;20089;-29
2023/06/17 09:40:14;;;;;;;2.80;2.60;;;;;;;;;;5097602;28;20058;-33
2023/06/17 09:42:42;;;;;;;3.65;3.38;;;;;;;;;;5097645;28;20092;-30
2023/06/17 09:45:11;;;;;;;3.65;3.35;;;;;;;;;;5079556;28;20031;-31
2023/06/17 09:47:37;;;;;;;3.95;3.75;;;;;;;;;;5097393;28;20020;-30
2023/06/17 09:50:04;;;;;;;3.35;3.15;;;;;;;;;;5097621;28;20389;-31
2023/06/17 09:52:32;;;;;;;4.00;3.70;;;;;;;;;;5097294;28;20526;-27
2023/06/17 09:54:59;;;;;;;3.58;3.38;;;;;;;;;;5097230;28;20054;-30
2023/06/17 09:57:31;;;;;;;4.22;3.92;;;;;;;;;;5097159;28;20080;-30
2023/06/17 10:00:00;;;;;;;4.30;4.00;;;;;;;;;;5097754;28;20028;-29
2023/06/17 10:02:26;;;;;;;4.35;4.05;;;;;;;;;;5097227;28;20020;-31
2023/06/17 10:04:53;;;;;;;3.58;3.33;;;;;;;;;;5096750;28;20043;-29
2023/06/17 10:07:23;;;;;;;3.65;3.45;;;;;;;;;;5097301;28;20043;-30
2023/06/17 10:09:50;;;;;;;3.70;3.50;;;;;;;;;;5097322;28;20020;-28
2023/06/17 10:12:16;;;;;;;3.55;3.35;;;;;;;;;;5097100;28;20048;-31
2023/06/17 10:14:43;;;;;;;3.55;3.35;;;;;;;;;;5097167;28;20374;-26
2023/06/17 10:17:10;;;;;;;3.78;3.47;;;;;;;;;;5097177;28;20035;-27
2023/06/17 10:19:39;;;;;;;3.65;3.45;;;;;;;;;;5096752;28;20081;-31
2023/06/17 10:22:08;;;;;;;4.95;4.25;;;;;;;;;;5096966;28;20112;-29
2023/06/17 10:24:35;;;;;;;4.60;3.97;;;;;;;;;;5096900;28;20054;-27
2023/06/17 10:27:06;;;;;;;4.13;3.90;;;;;;;;;;5096954;28;20343;-28
2023/06/17 10:29:35;;;;;;;4.50;4.05;;;;;;;;;;5096579;28;20023;-31
2023/06/17 10:32:20;;;;;;;4.53;4.22;;;;;;;;;;5096519;28;20027;-30
2023/06/17 10:35:21;;;;;;;4.65;4.35;;;;;;;;;;5096783;28;20028;-28
2023/06/17 10:37:48;;;;;;;4.20;4.00;;;;;;;;;;4995383;28;20092;-29
2023/06/17 10:40:24;;;;;;;4.72;4.43;;;;;;;;;;5076783;28;20389;-28
2023/06/17 10:43:10;;;;;;;4.40;3.38;;;;;;;;;;5095898;28;20055;-30
2023/06/17 10:45:58;;;;;;;3.78;3.58;;;;;;;;;;5095506;28;20062;-29
2023/06/17 10:48:30;;;;;;;5.60;3.92;;;;;;;;;;5096243;28;20028;-30
2023/06/17 10:51:18;;;;;;;4.43;4.15;;;;;;;;;;5096188;28;20332;-29
2023/06/17 10:53:50;;;;;;;5.40;5.00;;;;;;;;;;5096009;28;20031;-29
2023/06/17 10:56:16;;;;;;;3.75;3.45;;;;;;;;;;5096064;28;20024;-33
2023/06/17 10:58:48;;;;;;;4.00;3.80;;;;;;;;;;5096306;28;20034;-29
2023/06/17 11:01:14;;;;;;;4.07;3.80;;;;;;;;;;5096232;28;20024;-30
2023/06/17 11:03:41;;;;;;;4.43;4.03;;;;;;;;;;5095686;28;20093;-29
2023/06/17 11:06:07;;;;;;;4.55;4.25;;;;;;;;;;5095904;28;20028;-28
2023/06/17 11:08:34;;;;;;;3.85;3.65;;;;;;;;;;5096664;28;20431;-31
2023/06/17 11:11:08;;;;;;;4.63;4.32;;;;;;;;;;5096896;28;20024;-31
2023/06/17 11:13:34;;;;;;;4.20;3.90;;;;;;;;;;5095712;28;20030;-29
2023/06/17 11:16:00;;;;;;;4.70;4.40;;;;;;;;;;5095942;28;20028;-31
2023/06/17 11:18:27;;;;;;;3.92;3.72;;;;;;;;;;5095969;28;20020;-29
2023/06/17 11:20:53;;;;;;;4.10;3.90;;;;;;;;;;5095882;28;20467;-32
2023/06/17 11:23:19;;;;;;;4.53;4.22;;;;;;;;;;5095376;28;20016;-30
2023/06/17 11:25:46;;;;;;;3.80;3.60;;;;;;;;;;5095782;28;20024;-29
2023/06/17 11:28:12;;;;;;;5.10;4.80;;;;;;;;;;5095443;28;20053;-31
2023/06/17 11:30:40;;;;;;;4.20;3.90;;;;;;;;;;5095460;28;20197;-28
2023/06/17 11:33:07;;;;;;;6.22;5.75;;;;;;;;;;5077480;28;20027;-28
2023/06/17 11:35:33;;;;;;;4.70;4.40;;;;;;;;;;5095366;28;20358;-27
2023/06/17 11:37:59;;;;;;;4.80;4.50;;;;;;;;;;5095357;28;20051;-29
2023/06/17 11:40:26;;;;;;;4.63;4.32;;;;;;;;;;5096085;28;20036;-30
2023/06/17 11:42:52;;;;;;;5.20;4.70;;;;;;;;;;5095385;28;20028;-31
2023/06/17 11:45:20;;;;;;;5.25;4.75;;;;;;;;;;5095396;28;20363;-28
2023/06/17 11:47:46;;;;;;;5.57;5.18;;;;;;;;;;5095398;28;20028;-29
2023/06/17 11:50:12;;;;;;;4.80;4.50;;;;;;;;;;5095117;28;20055;-27
2023/06/17 11:52:38;;;;;;;4.82;4.53;;;;;;;;;;5095293;28;20025;-28
2023/06/17 11:55:05;;;;;;;4.28;4.07;;;;;;;;;;5094510;28;20028;-28
2023/06/17 11:57:32;;;;;;;4.65;4.35;;;;;;;;;;5094971;28;20024;-32
2023/06/17 12:00:04;;;;;;;3.83;3.55;;;;;;;;;;5095229;28;20055;-28
2023/06/17 12:02:30;;;;;;;4.20;4.00;;;;;;;;;;5095222;28;20032;-28
2023/06/17 12:05:03;;;;;;;4.15;3.85;;;;;;;;;;5094667;28;20055;-29
2023/06/17 12:07:29;;;;;;;4.75;4.35;;;;;;;;;;5095174;28;20020;-27
2023/06/17 12:09:56;;;;;;;4.53;4.22;;;;;;;;;;5095065;28;20027;-31
2023/06/17 12:12:29;;;;;;;4.55;4.28;;;;;;;;;;5095023;28;20028;-29
2023/06/17 12:15:04;;;;;;;4.85;4.55;;;;;;;;;;5095060;28;20039;-26
2023/06/17 12:17:36;;;;;;;4.38;4.07;;;;;;;;;;5077067;28;20020;-28
2023/06/17 12:20:03;;;;;;;4.50;4.20;;;;;;;;;;5095011;28;20028;-27
2023/06/17 12:22:29;;;;;;;4.60;4.30;;;;;;;;;;5094692;28;20051;-29
2023/06/17 12:24:55;;;;;;;4.47;4.18;;;;;;;;;;5094541;28;20066;-31
2023/06/17 12:27:28;;;;;;;5.18;4.88;;;;;;;;;;5095018;28;20047;-28
2023/06/17 12:29:55;;;;;;;4.93;4.63;;;;;;;;;;5094649;28;20125;-30
2023/06/17 12:32:21;;;;;;;4.68;4.28;;;;;;;;;;5094607;28;20016;-31
2023/06/17 12:34:48;;;;;;;4.93;4.63;;;;;;;;;;5094627;28;20040;-29
2023/06/17 12:37:14;;;;;;;4.82;4.53;;;;;;;;;;5094856;28;20024;-30
2023/06/17 12:39:41;;;;;;;5.22;4.90;;;;;;;;;;5094930;28;20324;-30
2023/06/17 12:42:07;;;;;;;4.75;4.45;;;;;;;;;;5094434;28;20028;-29
2023/06/17 12:44:34;;;;;;;4.32;4.13;;;;;;;;;;5077481;28;20141;-28
2023/06/17 12:47:00;;;;;;;4.72;4.50;;;;;;;;;;5095846;28;20032;-30
2023/06/17 12:49:27;;;;;;;4.90;4.60;;;;;;;;;;5094748;28;20024;-27
2023/06/17 12:51:53;;;;;;;4.50;4.22;;;;;;;;;;5094630;28;20324;-29
2023/06/17 12:54:19;;;;;;;4.65;4.35;;;;;;;;;;5094448;28;20032;-28
2023/06/17 12:56:45;;;;;;;4.70;4.40;;;;;;;;;;5094397;28;20355;-29
2023/06/17 12:59:11;;;;;;;4.63;4.43;;;;;;;;;;5094657;28;20081;-26
2023/06/17 13:01:37;;;;;;;4.85;4.55;;;;;;;;;;5094612;28;20435;-30
2023/06/17 13:04:03;;;;;;;3.90;3.70;;;;;;;;;;5094060;28;20109;-30
2023/06/17 13:06:29;;;;;;;4.80;4.50;;;;;;;;;;5096171;28;20027;-29
2023/06/17 13:08:55;;;;;;;4.40;4.13;;;;;;;;;;5098446;28;20026;-26
2023/06/17 13:11:22;;;;;;;4.70;4.40;;;;;;;;;;5098140;28;20035;-26
2023/06/17 13:13:50;;;;;;;4.55;4.25;;;;;;;;;;5098230;28;20024;-30
2023/06/17 13:16:16;;;;;;;4.88;4.57;;;;;;;;;;5097978;28;20101;-32
2023/06/17 13:18:43;;;;;;;4.72;4.43;;;;;;;;;;5097882;28;20028;-29
2023/06/17 13:21:09;;;;;;;4.07;3.88;;;;;;;;;;5098447;28;20028;-27
2023/06/17 13:23:35;;;;;;;4.68;4.38;;;;;;;;;;5098018;28;20028;-29
2023/06/17 13:26:01;;;;;;;4.47;4.28;;;;;;;;;;5097843;28;20101;-30
2023/06/17 13:28:27;;;;;;;3.25;3.05;;;;;;;;;;5097836;28;20020;-27
2023/06/17 13:31:01;;;;;;;5.13;4.72;;;;;;;;;;5097746;28;20053;-32
2023/06/17 13:33:27;;;;;;;4.95;4.53;;;;;;;;;;5097945;28;20193;-29
2023/06/17 13:35:53;;;;;;;4.85;4.55;;;;;;;;;;5097685;28;20020;-29
2023/06/17 13:38:19;;;;;;;5.53;5.03;;;;;;;;;;5097938;28;20447;-30
2023/06/17 13:40:45;;;;;;;5.40;5.10;;;;;;;;;;5097813;28;20020;-28
2023/06/17 13:43:12;;;;;;;4.80;4.50;;;;;;;;;;5097441;28;20028;-28
2023/06/17 13:45:38;;;;;;;4.47;4.18;;;;;;;;;;5097317;28;20031;-29
2023/06/17 13:48:04;;;;;;;3.42;3.13;;;;;;;;;;5097418;28;20035;-29
2023/06/17 13:50:30;;;;;;;3.85;3.60;;;;;;;;;;5097385;28;20099;-29
2023/06/17 13:52:58;;;;;;;4.32;4.03;;;;;;;;;;5097398;28;20073;-27
2023/06/17 13:55:25;;;;;;;4.70;4.45;;;;;;;;;;5097239;28;20451;-30
2023/06/17 13:57:51;;;;;;;4.20;3.90;;;;;;;;;;5097280;28;20024;-28
2023/06/17 14:00:17;;;;;;;5.15;4.65;;;;;;;;;;5097453;28;20024;-27
2023/06/17 14:02:43;;;;;;;5.30;5.00;;;;;;;;;;5097121;28;20028;-28
2023/06/17 14:05:10;;;;;;;4.20;4.00;;;;;;;;;;5096951;28;20374;-28
2023/06/17 14:07:36;;;;;;;4.07;3.83;;;;;;;;;;5097345;28;20081;-30
2023/06/17 14:10:02;;;;;;;4.22;4.03;;;;;;;;;;5097315;28;20021;-30
2023/06/17 14:12:28;;;;;;;4.93;4.63;;;;;;;;;;5096976;28;20031;-28
2023/06/17 14:14:54;;;;;;;5.88;5.47;;;;;;;;;;5096968;28;20055;-29
2023/06/17 14:17:23;;;;;;;4.63;4.32;;;;;;;;;;5096071;28;20409;-30
2023/06/17 14:19:49;;;;;;;5.00;4.70;;;;;;;;;;5096833;28;20405;-29
2023/06/17 14:22:16;;;;;;;4.90;4.60;;;;;;;;;;5096953;28;20028;-32
2023/06/17 14:24:42;;;;;;;4.47;4.18;;;;;;;;;;5096923;28;20064;-29
2023/06/17 14:27:12;;;;;;;4.88;4.57;;;;;;;;;;5096979;28;20023;-29
2023/06/17 14:29:38;;;;;;;4.75;4.45;;;;;;;;;;5096986;28;20104;-31
2023/06/17 14:32:05;;;;;;;4.47;4.20;;;;;;;;;;5096542;28;20109;-29
2023/06/17 14:34:31;;;;;;;4.43;4.22;;;;;;;;;;5096549;28;20456;-28
2023/06/17 14:36:57;;;;;;;4.90;4.60;;;;;;;;;;5096760;28;20028;-28
2023/06/17 14:39:23;;;;;;;4.65;4.45;;;;;;;;;;5096738;28;20351;-29
2023/06/17 14:41:49;;;;;;;4.82;4.53;;;;;;;;;;5096846;28;20428;-32